Time;durP1;ratioP1;P1;durP2;ratioP2;P2;SDS_P1;SDS_P2;PMS_P1;PMS_P2;Temp;Humidity;BMP_temperature;BMP_pressure;BME280_temperature;BME280_humidity;BME280_pressure;Samples;Min_cycle;Max_cycle;Signal;HPM_P1;HPM_P2
2022/06/03 00:00:19;;;;;;;10.55;5.05;;;;;;;11.77;80.48;100950.88;5034185;28;20021;-75
2022/06/03 00:03:04;;;;;;;8.15;5.28;;;;;;;11.76;80.36;100958.63;5033902;28;20386;-75
2022/06/03 00:05:59;;;;;;;6.20;4.88;;;;;;;11.74;81.47;100961.19;5032540;28;20394;-76
2022/06/03 00:08:39;;;;;;;5.30;4.75;;;;;;;11.72;81.27;100955.09;5032813;28;20375;-76
2022/06/03 00:11:29;;;;;;;11.13;4.90;;;;;;;11.69;82.07;100956.81;5033886;28;20422;-75
2022/06/03 00:14:18;;;;;;;6.45;4.80;;;;;;;11.65;81.97;100955.38;5033787;28;20064;-75
2022/06/03 00:17:21;;;;;;;8.88;5.22;;;;;;;11.61;81.90;100954.75;5033730;28;20022;-75
2022/06/03 00:20:09;;;;;;;7.40;4.90;;;;;;;11.59;82.49;100957.28;5032182;28;20128;-76
2022/06/03 00:23:03;;;;;;;6.38;5.18;;;;;;;11.55;82.38;100956.63;5033609;28;20544;-76
2022/06/03 00:25:52;;;;;;;5.22;4.55;;;;;;;11.53;82.28;100959.16;5033710;28;20025;-75
2022/06/03 00:28:56;;;;;;;7.60;4.18;;;;;;;11.51;83.37;100955.97;5033845;28;20074;-76
2022/06/03 00:31:49;;;;;;;5.97;4.30;;;;;;;11.46;83.01;100956.59;5033718;28;20101;-75
2022/06/03 00:34:30;;;;;;;7.82;5.05;;;;;;;11.41;82.37;100951.50;5032121;28;20040;-76
2022/06/03 00:37:05;;;;;;;5.15;4.30;;;;;;;11.38;82.87;100953.25;5033560;28;20057;-76
2022/06/03 00:39:49;;;;;;;5.10;4.28;;;;;;;11.36;83.41;100950.06;5033521;28;20111;-75
2022/06/03 00:42:44;;;;;;;11.05;4.95;;;;;;;11.34;83.36;100951.78;5032012;28;20025;-76
2022/06/03 00:45:32;;;;;;;10.93;5.43;;;;;;;11.30;84.45;100951.16;5032060;28;20017;-76
2022/06/03 00:47:58;;;;;;;7.32;4.70;;;;;;;11.26;83.57;100954.13;5033205;28;20022;-75
2022/06/03 00:50:52;;;;;;;6.32;4.15;;;;;;;11.23;83.99;100963.63;5031619;28;20053;-74
2022/06/03 00:53:37;;;;;;;6.43;3.97;;;;;;;11.19;84.12;100951.56;5031886;28;20094;-76
2022/06/03 00:56:25;;;;;;;5.45;4.22;;;;;;;11.16;85.13;100961.03;5032054;28;20030;-75
2022/06/03 00:58:56;;;;;;;8.35;4.22;;;;;;;11.07;85.75;100952.44;5033250;28;20442;-75
2022/06/03 01:01:26;;;;;;;11.35;5.55;;;;;;;11.01;86.27;100957.94;5033207;28;20025;-76
2022/06/03 01:04:20;;;;;;;9.95;5.07;;;;;;;10.96;86.74;100957.75;5031859;28;20112;-76
2022/06/03 01:07:12;;;;;;;7.18;4.38;;;;;;;10.91;85.88;100958.34;5033207;28;20037;-76
2022/06/03 01:09:49;;;;;;;8.20;5.28;;;;;;;10.89;86.28;100952.34;5031675;28;20022;-76
2022/06/03 01:12:46;;;;;;;5.72;4.57;;;;;;;10.89;86.75;100955.19;5032029;28;20036;-75
2022/06/03 01:15:15;;;;;;;7.55;5.07;;;;;;;10.87;85.91;100952.00;5032131;28;20045;-75
2022/06/03 01:18:03;;;;;;;7.55;4.50;;;;;;;10.85;86.44;100963.88;5035602;28;20075;-76
2022/06/03 01:20:53;;;;;;;8.98;5.13;;;;;;;10.80;86.11;100953.09;5033402;28;20470;-75
2022/06/03 01:23:59;;;;;;;6.70;4.55;;;;;;;10.75;86.49;100948.78;5034583;28;20044;-77
2022/06/03 01:26:39;;;;;;;8.43;5.25;;;;;;;10.71;86.71;100955.84;5022198;28;20072;-75
2022/06/03 01:29:06;;;;;;;9.18;4.80;;;;;;;10.68;87.06;100962.50;5031840;28;20030;-76
2022/06/03 01:32:09;;;;;;;8.02;5.75;;;;;;;10.65;87.33;100960.56;5033423;28;20053;-76
2022/06/03 01:34:55;;;;;;;8.10;4.22;;;;;;;10.62;87.15;100953.75;5031827;28;20034;-75
2022/06/03 01:37:31;;;;;;;9.55;5.38;;;;;;;10.59;87.55;100953.88;5032963;28;20037;-75
2022/06/03 01:40:34;;;;;;;6.22;4.30;;;;;;;10.55;88.10;100954.03;5032547;28;20087;-76
2022/06/03 01:43:56;;;;;;;9.32;5.40;;;;;;;10.47;88.31;100949.03;5031338;28;20051;-75
2022/06/03 01:47:06;;;;;;;7.43;5.10;;;;;;;10.33;88.65;100933.25;5014559;28;20475;-76
2022/06/03 01:50:00;;;;;;;11.15;5.72;;;;;;;10.44;88.34;100956.44;5018229;28;20139;-76
2022/06/03 01:52:56;;;;;;;10.02;5.53;;;;;;;10.38;88.66;100959.09;5056177;28;20029;-75
2022/06/03 01:55:24;;;;;;;12.50;5.68;;;;;;;10.34;88.92;100961.28;5054855;28;20039;-75
2022/06/03 01:58:05;;;;;;;9.30;5.20;;;;;;;10.33;88.88;100951.13;5056378;28;20078;-76
2022/06/03 02:00:38;;;;;;;11.82;5.97;;;;;;;10.32;88.07;100943.84;5056444;28;20017;-75
2022/06/03 02:03:36;;;;;;;8.77;5.72;;;;;;;10.32;88.23;100948.75;5038287;28;20017;-75
2022/06/03 02:06:26;;;;;;;8.73;5.38;;;;;;;10.30;88.71;100945.59;5056007;28;20108;-75
2022/06/03 02:09:09;;;;;;;11.40;5.85;;;;;;;10.27;89.17;100943.63;5056033;28;20393;-75
2022/06/03 02:12:06;;;;;;;11.18;5.97;;;;;;;10.25;88.63;100952.66;5055905;28;20029;-76
2022/06/03 02:14:53;;;;;;;14.73;5.18;;;;;;;10.22;89.01;100942.19;5055868;28;20055;-74
2022/06/03 02:18:01;;;;;;;18.25;6.85;;;;;;;10.18;88.99;100941.50;5054486;28;20441;-75
2022/06/03 02:20:47;;;;;;;17.13;6.38;;;;;;;10.15;89.56;100938.78;5044851;28;20052;-75
2022/06/03 02:23:49;;;;;;;14.43;6.45;;;;;;;10.09;90.13;100932.88;5037982;28;20052;-75
2022/06/03 02:26:40;;;;;;;11.20;6.23;;;;;;;10.10;90.35;100945.84;5055787;28;20029;-73
2022/06/03 02:32:29;;;;;;;8.35;5.93;;;;;;;10.07;90.32;100952.44;5040746;28;20061;-74
2022/06/03 02:34:57;;;;;;;7.70;4.80;;;;;;;10.06;90.71;100952.94;5054103;28;20056;-74
2022/06/03 02:37:53;;;;;;;10.48;5.43;;;;;;;10.04;91.30;100947.69;5037490;28;20390;-74
2022/06/03 02:40:24;;;;;;;11.90;6.28;;;;;;;10.00;90.90;100947.00;5037370;28;20446;-74
2022/06/03 02:43:27;;;;;;;11.70;6.03;;;;;;;10.00;90.49;100958.41;5037342;28;20029;-75
2022/06/03 02:45:52;;;;;;;;;;;;;;;9.99;90.06;100953.97;5020819;28;20082;-75
2022/06/03 02:48:37;;;;;;;11.95;5.90;;;;;;;10.01;89.44;100959.19;5037313;28;20277;-74
2022/06/03 02:51:51;;;;;;;12.63;6.68;;;;;;;9.94;90.09;100946.78;5054694;28;20057;-75
2022/06/03 02:54:36;;;;;;;10.23;6.40;;;;;;;9.99;89.78;100959.66;4993745;28;20030;-75
2022/06/03 02:57:07;;;;;;;14.02;6.65;;;;;;;9.99;90.11;100959.66;4993824;28;20112;-75
2022/06/03 03:00:11;;;;;;;10.25;5.47;;;;;;;9.97;91.43;100965.78;5025963;28;20545;-75
2022/06/03 03:03:10;;;;;;;9.27;6.03;;;;;;;9.87;93.15;100960.47;5053775;28;20029;-75
2022/06/03 03:06:10;;;;;;;7.20;5.45;;;;;;;9.89;93.24;100966.50;5054883;28;20037;-77
2022/06/03 03:08:54;;;;;;;8.75;6.53;;;;;;;9.91;94.65;100966.84;5054732;28;20024;-75
2022/06/03 03:11:40;;;;;;;13.90;5.75;;;;;;;9.92;93.77;100969.22;5054957;28;20070;-75
2022/06/03 03:14:30;;;;;;;9.07;6.38;;;;;;;9.96;94.96;100975.56;5035002;28;20025;-76
2022/06/03 03:17:05;;;;;;;9.70;6.03;;;;;;;9.96;94.94;100974.81;5035113;28;20144;-76
2022/06/03 03:19:39;;;;;;;6.55;5.85;;;;;;;9.88;95.73;100974.25;5035138;28;20036;-75
2022/06/03 03:22:25;;;;;;;7.65;6.47;;;;;;;9.91;96.41;100966.84;5016919;28;20033;-77
2022/06/03 03:25:17;;;;;;;6.97;5.57;;;;;;;9.91;95.95;100972.53;5016740;28;20075;-75
2022/06/03 03:28:14;;;;;;;9.17;6.53;;;;;;;9.90;96.35;100973.78;5033316;28;20390;-75
2022/06/03 03:30:43;;;;;;;8.07;5.88;;;;;;;9.87;96.22;100963.31;5034622;28;20474;-76
2022/06/03 03:33:28;;;;;;;7.95;5.78;;;;;;;9.98;95.55;100980.81;5035344;28;20179;-75
2022/06/03 03:36:19;;;;;;;9.38;6.70;;;;;;;10.08;95.59;100976.81;5053045;28;20025;-74
2022/06/03 03:39:06;;;;;;;8.43;6.22;;;;;;;10.17;94.57;100988.31;5045677;28;20071;-75
2022/06/03 03:42:01;;;;;;;9.88;6.47;;;;;;;10.27;93.42;100983.50;5036485;28;20025;-76
2022/06/03 03:44:58;;;;;;;9.48;6.55;;;;;;;10.36;92.78;100978.69;5052770;28;20033;-76
2022/06/03 03:47:42;;;;;;;9.65;6.53;;;;;;;10.43;92.88;100979.69;5054197;28;20029;-74
2022/06/03 03:50:38;;;;;;;7.32;5.60;;;;;;;10.51;92.71;100976.13;5049626;28;20049;-76
2022/06/03 03:53:29;;;;;;;11.50;5.38;;;;;;;10.52;91.86;100974.88;5032781;28;20124;-76
2022/06/03 03:56:17;;;;;;;6.75;6.05;;;;;;;10.63;91.38;100980.19;5035615;28;20485;-76
2022/06/03 03:59:10;;;;;;;8.63;6.38;;;;;;;10.71;91.62;100984.34;5054005;28;20488;-76
2022/06/03 04:02:15;;;;;;;7.55;6.40;;;;;;;10.78;91.48;100990.59;5040868;28;20029;-75
2022/06/03 04:05:11;;;;;;;9.05;5.80;;;;;;;10.85;90.70;100989.53;5010665;28;20474;-77
2022/06/03 04:08:00;;;;;;;8.10;6.30;;;;;;;10.92;90.27;100989.25;5034070;28;20033;-75
2022/06/03 04:11:00;;;;;;;9.10;5.90;;;;;;;10.99;90.71;100986.16;5037947;28;20513;-75
2022/06/03 04:13:50;;;;;;;8.77;5.85;;;;;;;11.11;90.34;100995.84;5000071;28;20100;-75
2022/06/03 04:16:54;;;;;;;7.70;6.10;;;;;;;11.19;89.66;100985.78;5032199;28;20033;-75
2022/06/03 04:19:52;;;;;;;8.57;6.28;;;;;;;11.25;89.35;100987.53;5053370;28;20025;-75
2022/06/03 04:23:06;;;;;;;9.05;6.35;;;;;;;11.34;89.19;100992.53;5053802;28;20079;-76
2022/06/03 04:26:06;;;;;;;6.57;4.95;;;;;;;11.44;88.68;100984.81;4971992;28;20046;-76
2022/06/03 04:28:40;;;;;;;9.80;6.72;;;;;;;11.52;88.61;100986.91;5032122;28;20032;-75
2022/06/03 04:31:46;;;;;;;9.00;6.10;;;;;;;11.61;88.75;100992.63;5015459;28;20031;-75
2022/06/03 04:34:45;;;;;;;9.90;6.97;;;;;;;11.71;88.71;100990.59;5034300;28;20026;-76
2022/06/03 04:37:45;;;;;;;9.38;6.28;;;;;;;11.84;88.28;100994.16;5033459;28;20222;-76
2022/06/03 04:40:33;;;;;;;9.27;6.97;;;;;;;11.97;88.03;100983.44;5002886;28;20099;-75
2022/06/03 04:43:19;;;;;;;8.63;6.30;;;;;;;12.11;87.65;100982.81;5033628;28;20108;-76
2022/06/03 04:46:25;;;;;;;9.00;6.30;;;;;;;12.27;86.95;100987.44;5020643;28;20052;-75
2022/06/03 04:49:10;;;;;;;9.30;7.53;;;;;;;12.42;86.66;100994.13;5032303;28;20493;-75
2022/06/03 04:52:14;;;;;;;10.48;6.78;;;;;;;12.48;87.04;101000.00;5015456;28;20025;-75
2022/06/03 04:55:17;;;;;;;7.95;6.25;;;;;;;12.63;86.01;100991.59;5031832;28;20022;-75
2022/06/03 04:58:02;;;;;;;13.02;6.82;;;;;;;12.79;85.16;100989.19;5033375;28;20025;-76
2022/06/03 05:00:48;;;;;;;6.95;6.25;;;;;;;12.92;85.27;100984.13;5033237;28;20541;-76
2022/06/03 05:03:53;;;;;;;9.95;7.15;;;;;;;13.08;84.69;100982.16;5032859;28;20025;-77
2022/06/03 05:06:49;;;;;;;12.02;6.78;;;;;;;13.25;83.40;100989.94;4972920;28;20369;-77
2022/06/03 05:09:40;;;;;;;11.95;8.00;;;;;;;13.39;83.03;100997.06;5015314;28;20030;-76
2022/06/03 05:12:06;;;;;;;8.45;6.63;;;;;;;13.53;82.27;100993.50;5033014;28;20033;-77
2022/06/03 05:14:51;;;;;;;11.18;6.78;;;;;;;13.66;81.82;100993.31;5015039;28;20017;-76
2022/06/03 05:17:44;;;;;;;10.40;7.15;;;;;;;13.83;81.37;101000.22;5032560;28;20025;-76
2022/06/03 05:20:29;;;;;;;11.75;7.05;;;;;;;13.96;80.67;100994.28;5032730;28;20474;-75
2022/06/03 05:22:55;;;;;;;8.38;7.00;;;;;;;14.06;80.63;100998.66;5033078;28;20017;-77
2022/06/03 05:25:38;;;;;;;13.02;6.38;;;;;;;14.15;79.78;100987.16;5034425;28;20095;-79
2022/06/03 05:28:11;;;;;;;7.82;6.13;;;;;;;14.34;79.17;100993.53;5035999;28;20034;-81
2022/06/03 05:30:49;;;;;;;7.45;5.88;;;;;;;14.53;78.12;100992.16;5037320;28;20037;-80
2022/06/03 05:33:36;;;;;;;7.35;6.03;;;;;;;14.69;78.30;100998.25;5037151;28;20018;-79
2022/06/03 05:36:28;;;;;;;9.48;5.53;;;;;;;14.82;77.69;100997.94;5019175;28;20048;-80
2022/06/03 05:39:23;;;;;;;7.80;5.88;;;;;;;14.98;78.20;100996.69;5053317;28;20357;-79
2022/06/03 05:42:28;;;;;;;6.65;5.30;;;;;;;15.15;77.28;100997.78;5056606;28;20021;-79
2022/06/03 05:45:25;;;;;;;9.10;5.95;;;;;;;15.30;76.62;100987.09;5042960;28;20104;-80
2022/06/03 05:48:07;;;;;;;6.25;5.63;;;;;;;15.50;76.08;100986.38;5039438;28;20037;-85
2022/06/03 05:50:51;;;;;;;6.18;4.85;;;;;;;15.88;76.00;100976.84;5056573;28;20049;-85
2022/06/03 05:53:24;;;;;;;5.13;4.63;;;;;;;17.11;73.79;100977.13;5022532;28;20028;-86
2022/06/03 05:56:02;;;;;;;6.22;4.13;;;;;;;19.15;65.85;100968.59;5022703;28;20029;-86
2022/06/03 05:58:52;;;;;;;5.97;4.32;;;;;;;21.81;58.49;100963.91;5023973;28;20506;-79
2022/06/03 06:01:29;;;;;;;5.15;3.90;;;;;;;24.14;43.61;100967.78;5055738;28;20118;-81
2022/06/03 06:04:34;;;;;;;5.97;3.72;;;;;;;25.40;40.64;100966.94;5055623;28;20033;-79
2022/06/03 06:07:37;;;;;;;5.90;3.95;;;;;;;26.83;34.89;100973.13;5055623;28;20029;-79
2022/06/03 06:10:21;;;;;;;6.75;3.78;;;;;;;27.97;34.45;100975.59;5047981;28;20030;-85
2022/06/03 06:12:53;;;;;;;7.00;3.67;;;;;;;28.87;31.39;100976.78;5056624;28;20041;-86
2022/06/03 06:15:45;;;;;;;9.80;3.50;;;;;;;30.00;30.36;100972.41;5059819;28;20381;-79
2022/06/03 06:18:38;;;;;;;6.53;3.13;;;;;;;30.91;26.59;100970.69;5054392;28;20048;-75
2022/06/03 06:21:22;;;;;;;4.78;3.45;;;;;;;32.04;24.96;100962.38;5055994;28;20032;-76
2022/06/03 06:24:15;;;;;;;4.38;2.72;;;;;;;33.05;22.76;100976.19;5038008;28;20043;-76
2022/06/03 06:27:23;;;;;;;6.28;2.88;;;;;;;33.53;22.20;100963.53;5038160;28;20032;-76
2022/06/03 06:30:17;;;;;;;16.08;4.20;;;;;;;33.91;22.21;100963.38;5042383;28;20020;-78
2022/06/03 06:33:05;;;;;;;4.32;2.55;;;;;;;34.94;20.69;100967.69;5055419;28;20099;-79
2022/06/03 06:35:58;;;;;;;5.95;3.80;;;;;;;34.09;20.53;100970.59;5055747;28;20021;-87
2022/06/03 06:38:38;;;;;;;7.88;2.33;;;;;;;34.11;20.43;100967.00;5054116;28;20497;-87
2022/06/03 06:41:16;;;;;;;6.95;2.33;;;;;;;34.74;19.87;100969.25;5054853;28;20031;-87
2022/06/03 06:43:47;;;;;;;6.05;2.85;;;;;;;34.98;20.11;100961.28;5053428;28;20608;-87
2022/06/03 06:46:36;;;;;;;8.73;3.08;;;;;;;35.08;19.32;100944.94;5035540;28;20036;-78
2022/06/03 06:49:17;;;;;;;4.47;2.50;;;;;;;36.09;18.93;100955.94;5018362;28;20021;-81
2022/06/03 06:51:42;;;;;;;;;;;;;;;36.56;17.61;100950.75;5053804;28;20501;-81
2022/06/03 06:54:32;;;;;;;4.43;2.17;;;;;;;37.24;17.68;100954.09;5053208;28;19913;-79
2022/06/03 06:57:02;;;;;;;4.20;2.47;;;;;;;37.61;17.87;100960.72;5044192;28;20355;-79
2022/06/03 06:59:36;;;;;;;2.13;1.92;;;;;;;38.06;16.60;100957.28;5054972;28;20028;-80
2022/06/03 07:02:14;;;;;;;6.25;2.97;;;;;;;38.10;16.50;100948.56;5037370;28;20029;-81
2022/06/03 07:04:47;;;;;;;8.95;2.42;;;;;;;39.00;17.08;100948.13;5037058;28;20078;-80
2022/06/03 07:07:27;;;;;;;4.57;2.70;;;;;;;39.09;16.00;100953.81;5020638;28;20466;-81
2022/06/03 07:09:58;;;;;;;3.00;2.15;;;;;;;39.19;15.98;100947.59;5037170;28;20063;-80
2022/06/03 07:12:25;;;;;;;;;;;;;;;39.54;14.99;100947.09;5037495;28;20020;-80
2022/06/03 07:15:14;;;;;;;9.90;3.35;;;;;;;39.26;15.75;100947.25;5036939;28;19916;-80
2022/06/03 07:21:01;;;;;;;10.48;2.45;;;;;;;39.29;15.36;100933.97;5055079;28;20039;-82
2022/06/03 07:23:33;;;;;;;4.15;2.33;;;;;;;39.68;15.99;100936.63;5020948;28;20024;-81
2022/06/03 07:26:31;;;;;;;8.73;3.10;;;;;;;39.09;14.84;100924.00;5054873;28;20029;-81
2022/06/03 07:29:04;;;;;;;2.35;2.15;;;;;;;38.63;14.89;100939.50;5047562;28;20041;-80
2022/06/03 07:31:44;;;;;;;7.28;2.20;;;;;;;38.99;15.07;100934.66;5020123;28;20028;-81
2022/06/03 07:34:25;;;;;;;2.60;2.10;;;;;;;38.83;15.96;100919.69;5036417;28;20029;-80
2022/06/03 07:37:01;;;;;;;3.33;2.10;;;;;;;39.19;14.89;100908.84;5019923;28;20035;-80
2022/06/03 07:39:29;;;;;;;14.70;3.42;;;;;;;39.47;15.42;100909.50;5019974;28;20033;-81
2022/06/03 07:42:04;;;;;;;13.25;4.35;;;;;;;39.33;14.64;100909.56;5054699;28;20029;-81
2022/06/03 07:44:55;;;;;;;6.28;2.55;;;;;;;39.16;15.14;100910.97;5019822;28;20047;-80
2022/06/03 07:47:22;;;;;;;2.63;2.30;;;;;;;39.04;14.83;100895.44;5019386;28;20025;-81
2022/06/03 07:49:54;;;;;;;4.20;2.28;;;;;;;39.07;15.92;100902.28;5035880;28;20476;-80
2022/06/03 07:52:28;;;;;;;9.48;3.00;;;;;;;39.04;15.23;100904.38;5019978;28;20028;-81
2022/06/03 07:54:56;;;;;;;5.88;3.35;;;;;;;37.72;16.56;100916.69;5054479;28;20044;-80
2022/06/03 07:57:37;;;;;;;3.72;3.17;;;;;;;38.41;15.84;100907.09;5023936;28;20059;-82
2022/06/03 08:00:06;;;;;;;3.80;2.30;;;;;;;38.11;16.50;100910.66;5058668;28;20496;-83
2022/06/03 08:02:33;;;;;;;3.90;2.95;;;;;;;37.71;16.82;100906.22;5026727;28;20029;-80
2022/06/03 08:05:06;;;;;;;3.65;2.80;;;;;;;37.78;17.09;100899.94;5055870;28;20082;-89
2022/06/03 08:13:19;;;;;;;2.38;2.17;;;;;;;38.75;16.51;100880.53;5053964;28;20036;-84
2022/06/03 08:16:02;;;;;;;3.38;2.35;;;;;;;38.62;16.70;100878.38;5054647;28;20017;-83
2022/06/03 08:18:43;;;;;;;2.63;2.42;;;;;;;38.29;16.74;100887.78;5054286;28;20021;-84
2022/06/03 08:21:42;;;;;;;5.30;2.88;;;;;;;38.21;16.49;100884.41;5055201;28;20133;-84
2022/06/03 08:24:11;;;;;;;2.15;1.98;;;;;;;38.28;16.55;100898.19;5056360;28;20017;-81
2022/06/03 08:26:59;;;;;;;2.47;1.98;;;;;;;38.10;16.23;100886.06;5022924;28;20025;-83
2022/06/03 08:29:34;;;;;;;2.65;2.45;;;;;;;37.99;17.27;100884.00;4999197;28;20034;-83
2022/06/03 08:32:29;;;;;;;2.67;2.40;;;;;;;37.38;16.56;100889.50;5033314;28;20031;-83
2022/06/03 08:34:58;;;;;;;2.90;2.67;;;;;;;37.06;17.77;100885.41;5048559;28;20025;-83
2022/06/03 08:37:33;;;;;;;2.20;2.00;;;;;;;37.24;18.01;100879.78;5041590;28;20037;-90
2022/06/03 08:40:14;;;;;;;2.70;2.50;;;;;;;37.14;17.17;100891.88;5039231;28;20035;-89
2022/06/03 08:43:07;;;;;;;2.58;1.92;;;;;;;37.37;17.51;100887.19;5026509;28;20040;-89
2022/06/03 08:46:03;;;;;;;5.28;3.17;;;;;;;37.92;16.36;100894.00;5038275;28;20048;-91
2022/06/03 08:48:37;;;;;;;8.70;2.78;;;;;;;36.65;17.48;100887.47;5056576;28;20025;-92
2022/06/03 08:51:10;;;;;;;9.63;2.60;;;;;;;36.47;17.51;100887.09;5003578;28;20045;-91
2022/06/03 08:53:51;;;;;;;3.05;2.47;;;;;;;36.50;18.30;100868.00;5004327;28;20478;-91
2022/06/03 08:56:32;;;;;;;8.80;3.15;;;;;;;36.48;18.71;100873.81;5028206;28;20033;-83
2022/06/03 08:59:00;;;;;;;7.35;3.38;;;;;;;36.53;18.65;100875.59;5035800;28;20028;-81
2022/06/03 09:01:27;;;;;;;11.95;3.53;;;;;;;35.96;18.43;100879.47;5056976;28;20025;-83
2022/06/03 09:04:14;;;;;;;22.90;7.25;;;;;;;35.07;18.57;100884.16;5057439;28;20024;-82
2022/06/03 09:07:18;;;;;;;14.40;4.55;;;;;;;34.82;19.25;100869.16;5061319;28;20025;-78
2022/06/03 09:09:53;;;;;;;53.97;12.68;;;;;;;34.73;19.35;100872.22;5057914;28;20021;-79
2022/06/03 09:12:30;;;;;;;4.32;2.30;;;;;;;34.94;19.77;100866.97;5057069;28;20029;-81
2022/06/03 09:15:10;;;;;;;2.90;2.60;;;;;;;34.81;19.61;100870.56;5059174;28;20082;-80
2022/06/03 09:17:40;;;;;;;5.70;2.85;;;;;;;34.34;19.90;100866.59;5058854;28;20033;-80
2022/06/03 09:20:13;;;;;;;2.00;1.90;;;;;;;34.22;21.03;100857.66;5061966;28;20501;-80
2022/06/03 09:22:40;;;;;;;2.53;2.33;;;;;;;33.65;21.26;100867.63;5063649;28;20032;-81
2022/06/03 09:25:24;;;;;;;4.70;2.53;;;;;;;33.11;22.27;100860.69;5068418;28;20046;-81
2022/06/03 09:27:51;;;;;;;5.00;2.25;;;;;;;32.86;21.49;100867.72;5058802;28;20036;-79
2022/06/03 09:30:31;;;;;;;10.02;3.33;;;;;;;32.77;20.83;100864.81;5039895;28;20190;-72
2022/06/03 09:33:03;;;;;;;2.40;2.13;;;;;;;32.61;22.04;100866.53;5055639;28;20048;-70
2022/06/03 09:35:30;;;;;;;11.98;4.53;;;;;;;32.56;22.72;100860.28;5038913;28;20031;-71
2022/06/03 09:37:58;;;;;;;20.23;3.58;;;;;;;32.32;21.61;100866.50;5056980;28;20033;-77
2022/06/03 09:40:31;;;;;;;4.13;3.38;;;;;;;31.79;21.93;100858.66;5055963;28;20116;-77
2022/06/03 09:43:09;;;;;;;7.65;2.95;;;;;;;31.68;21.86;100871.81;5056849;28;20032;-75
2022/06/03 09:45:34;;;;;;;9.75;3.58;;;;;;;31.51;22.66;100871.91;5055437;28;20484;-73
2022/06/03 09:48:09;;;;;;;1.55;1.45;;;;;;;31.26;21.27;100869.16;5038539;28;20029;-75
2022/06/03 09:50:35;;;;;;;36.17;7.20;;;;;;;31.25;22.78;100862.50;5038332;28;20446;-73
2022/06/03 09:53:11;;;;;;;17.77;3.85;;;;;;;31.33;22.02;100853.53;5055088;28;20170;-76
2022/06/03 09:55:40;;;;;;;7.43;2.65;;;;;;;31.25;22.27;100844.81;5055646;28;20037;-77
2022/06/03 09:58:18;;;;;;;2.28;1.67;;;;;;;31.18;22.84;100848.66;5021805;28;20051;-76
2022/06/03 10:00:50;;;;;;;6.82;2.08;;;;;;;30.93;21.83;100859.03;5038484;28;20024;-77
2022/06/03 10:03:17;;;;;;;1.05;0.93;;;;;;;30.81;21.47;100847.81;5038488;28;20040;-75
2022/06/03 10:05:46;;;;;;;1.88;1.38;;;;;;;30.63;23.34;100840.44;5021861;28;20182;-75
2022/06/03 10:08:12;;;;;;;2.72;1.83;;;;;;;30.39;23.27;100842.06;5022011;28;20091;-74
2022/06/03 10:13:39;;;;;;;2.08;1.35;;;;;;;29.85;23.75;100829.31;5018806;28;20117;-73
2022/06/03 10:16:07;;;;;;;1.58;1.48;;;;;;;29.74;25.28;100837.88;5055653;28;20024;-76
2022/06/03 10:18:44;;;;;;;1.85;1.45;;;;;;;29.51;24.87;100847.66;5021738;28;20067;-75
2022/06/03 10:21:14;;;;;;;37.33;6.53;;;;;;;29.06;23.42;100842.91;5021333;28;20060;-75
2022/06/03 10:23:55;;;;;;;10.88;3.47;;;;;;;28.73;25.30;100835.50;5055666;28;20099;-74
2022/06/03 10:26:33;;;;;;;9.57;3.30;;;;;;;28.53;24.39;100831.47;5021261;28;20021;-74
2022/06/03 10:29:07;;;;;;;6.60;1.80;;;;;;;28.47;24.88;100830.13;5055068;28;20033;-76
2022/06/03 10:31:34;;;;;;;24.65;6.45;;;;;;;28.32;25.76;100831.75;5023926;28;20114;-75
2022/06/03 10:34:14;;;;;;;19.05;4.80;;;;;;;27.93;25.31;100839.06;5038086;28;20056;-74
2022/06/03 10:36:46;;;;;;;20.42;6.40;;;;;;;27.81;24.03;100840.88;5038636;28;20056;-74
2022/06/03 10:39:17;;;;;;;1.67;1.13;;;;;;;28.19;25.92;100831.22;5021216;28;20182;-75
2022/06/03 10:41:49;;;;;;;6.47;1.85;;;;;;;28.45;24.64;100836.59;5037515;28;20036;-76
2022/06/03 10:44:23;;;;;;;11.98;1.88;;;;;;;28.16;25.04;100826.53;5037296;28;20099;-74
2022/06/03 10:47:07;;;;;;;2.35;1.15;;;;;;;28.38;25.47;100819.03;5021557;28;20137;-76
2022/06/03 10:49:39;;;;;;;0.88;0.75;;;;;;;28.04;23.82;100820.28;5055968;28;20433;-75
2022/06/03 11:03:29;;;;;;;10.15;2.83;;;;;;;26.33;26.77;100808.06;5035159;28;20040;-77
2022/06/03 11:05:55;;;;;;;4.60;1.80;;;;;;;26.28;26.97;100811.94;5035025;28;20033;-76
2022/06/03 11:08:24;;;;;;;7.10;2.45;;;;;;;26.09;27.02;100800.53;5017075;28;20032;-76
2022/06/03 11:10:54;;;;;;;2.53;1.25;;;;;;;26.16;28.18;100807.75;5000878;28;20022;-76
2022/06/03 11:13:38;;;;;;;0.97;0.90;;;;;;;26.22;27.08;100790.88;5032979;28;20088;-77
2022/06/03 11:16:21;;;;;;;6.15;2.42;;;;;;;25.97;27.78;100798.50;5050744;28;20283;-78
2022/06/03 11:18:47;;;;;;;5.05;1.90;;;;;;;26.00;27.12;100788.63;5036086;28;20115;-77
2022/06/03 11:21:18;;;;;;;7.88;2.25;;;;;;;25.80;27.08;100788.09;5051268;28;20117;-77
2022/06/03 11:23:43;;;;;;;27.02;5.28;;;;;;;25.93;26.52;100783.50;5035423;28;20025;-77
2022/06/03 11:26:10;;;;;;;1.98;1.45;;;;;;;25.96;26.75;100777.28;5054364;28;20510;-77
2022/06/03 11:28:54;;;;;;;44.72;8.23;;;;;;;25.98;27.31;100777.50;5036575;28;20041;-77
2022/06/03 11:31:35;;;;;;;52.25;11.32;;;;;;;26.12;28.85;100772.31;5038080;28;20094;-78
2022/06/03 11:34:19;;;;;;;;;;;;;;;26.20;27.86;100767.25;5036241;28;20040;-78
2022/06/03 11:36:56;;;;;;;6.05;2.88;;;;;;;26.15;26.59;100765.28;5053714;28;19909;-78
2022/06/03 11:39:46;;;;;;;2.40;1.88;;;;;;;25.84;27.88;100764.41;5036688;28;20440;-79
2022/06/03 11:42:33;;;;;;;2.65;1.77;;;;;;;25.97;28.50;100751.78;5054611;28;20039;-79
2022/06/03 11:45:16;;;;;;;3.53;1.65;;;;;;;25.87;27.85;100762.44;5037142;28;20025;-80
2022/06/03 11:47:57;;;;;;;5.28;1.52;;;;;;;25.84;27.43;100758.56;5021262;28;20493;-80
2022/06/03 11:50:26;;;;;;;3.60;1.73;;;;;;;25.82;27.61;100743.75;5054652;28;20083;-78
2022/06/03 11:52:54;;;;;;;1.95;1.83;;;;;;;25.87;28.04;100739.88;5036893;28;20044;-78
2022/06/03 11:55:23;;;;;;;3.63;1.92;;;;;;;25.92;28.11;100738.94;5020133;28;20033;-76
2022/06/03 11:58:36;;;;;;;1.35;1.25;;;;;;;25.87;28.25;100734.03;5037079;28;20032;-72
2022/06/03 12:01:07;;;;;;;3.40;1.98;;;;;;;25.72;27.73;100725.22;5000155;28;20363;-77
2022/06/03 12:03:37;;;;;;;2.57;1.90;;;;;;;25.72;28.32;100717.22;5020323;28;20104;-76
2022/06/03 12:06:09;;;;;;;4.15;1.77;;;;;;;25.67;27.71;100714.47;5034995;28;20029;-77
2022/06/03 12:08:45;;;;;;;9.13;2.45;;;;;;;25.58;27.54;100720.84;5020266;28;20044;-76
2022/06/03 12:14:34;;;;;;;3.03;1.60;;;;;;;25.77;30.88;100716.28;5053515;28;20112;-81
2022/06/03 12:17:23;;;;;;;1.80;1.45;;;;;;;25.83;30.01;100727.00;5020992;28;20508;-81
2022/06/03 12:19:52;;;;;;;1.48;1.38;;;;;;;25.59;27.61;100726.13;5034148;28;20108;-81
2022/06/03 12:22:30;;;;;;;4.72;1.58;;;;;;;25.50;28.18;100717.09;5035444;28;20028;-79
2022/06/03 12:25:00;;;;;;;1.55;1.40;;;;;;;25.69;27.46;100708.84;5054857;28;20465;-76
2022/06/03 12:27:28;;;;;;;1.85;1.33;;;;;;;25.59;27.45;100710.75;5035857;28;20063;-74
2022/06/03 12:30:17;;;;;;;2.38;1.63;;;;;;;25.37;28.62;100704.16;5052189;28;20481;-75
2022/06/03 12:33:05;;;;;;;1.70;1.60;;;;;;;25.28;28.60;100706.81;5053330;28;20029;-74
2022/06/03 12:35:42;;;;;;;2.33;1.40;;;;;;;25.11;30.91;100709.44;5035473;28;20037;-75
2022/06/03 12:38:20;;;;;;;1.48;1.38;;;;;;;25.28;30.18;100689.31;5035315;28;20032;-74
2022/06/03 12:41:06;;;;;;;6.50;2.92;;;;;;;25.02;29.35;100681.56;5053403;28;20033;-76
2022/06/03 12:43:58;;;;;;;7.10;2.60;;;;;;;25.16;29.51;100679.34;5035037;28;20098;-74
2022/06/03 13:35:32;;;;;;;3.15;2.00;;;;;;;25.17;30.68;100610.91;5050587;28;20510;-73
2022/06/03 13:38:22;;;;;;;9.82;4.50;;;;;;;25.10;30.87;100600.78;5015850;28;20056;-76
2022/06/03 13:43:32;;;;;;;6.35;2.63;;;;;;;25.20;31.83;100595.19;5035365;28;20158;-75
2022/06/03 13:46:09;;;;;;;4.78;2.40;;;;;;;25.27;31.38;100591.50;5032676;28;20025;-78
2022/06/03 13:48:41;;;;;;;7.95;2.63;;;;;;;25.16;31.65;100592.63;5032114;28;20477;-77
2022/06/03 13:51:21;;;;;;;4.22;2.05;;;;;;;25.15;32.67;100575.72;5049810;28;20032;-79
2022/06/03 13:53:52;;;;;;;10.13;4.53;;;;;;;25.20;31.56;100581.38;5050383;28;20026;-79
2022/06/03 13:56:22;;;;;;;5.85;3.08;;;;;;;25.28;30.87;100593.88;5049928;28;20032;-82